Time;durP1;ratioP1;P1;durP2;ratioP2;P2;SDS_P1;SDS_P2;PMS_P1;PMS_P2;Temp;Humidity;BMP_temperature;BMP_pressure;BME280_temperature;BME280_humidity;BME280_pressure;Samples;Min_cycle;Max_cycle;Signal;HPM_P1;HPM_P2
2021/03/01 00:01:34;;;;;;;56.00;28.85;;;4.10;99.90;;;;;;4181271;28;20125;-78
2021/03/01 00:03:35;;;;;;;62.80;31.33;;;4.10;99.90;;;;;;4186829;28;20029;-78
2021/03/01 00:05:36;;;;;;;53.33;27.70;;;4.10;99.90;;;;;;4180394;28;20056;-77
2021/03/01 00:07:37;;;;;;;56.00;29.20;;;4.10;99.90;;;;;;4160229;28;20029;-78
2021/03/01 00:09:38;;;;;;;66.85;30.05;;;4.10;99.90;;;;;;4161345;28;20037;-78
2021/03/01 00:11:39;;;;;;;52.05;27.60;;;4.10;99.90;;;;;;4173888;28;20047;-78
2021/03/01 00:13:40;;;;;;;53.08;27.30;;;4.10;99.90;;;;;;4180677;28;20033;-77
2021/03/01 00:15:41;;;;;;;55.08;27.13;;;4.10;99.90;;;;;;4163778;28;20037;-77
2021/03/01 00:17:42;;;;;;;50.97;28.13;;;4.10;99.90;;;;;;4168103;28;20044;-77
2021/03/01 00:19:43;;;;;;;58.83;26.40;;;4.10;99.90;;;;;;4173836;28;20033;-77
2021/03/01 00:21:44;;;;;;;58.10;26.55;;;4.10;99.90;;;;;;4179408;28;20048;-78
2021/03/01 00:23:49;;;;;;;63.20;29.40;;;4.10;99.90;;;;;;4172682;28;20559;-78
2021/03/01 00:25:50;;;;;;;55.90;26.55;;;4.10;99.90;;;;;;4178714;28;20084;-77
2021/03/01 00:27:50;;;;;;;55.42;25.70;;;4.10;99.90;;;;;;4174774;28;20113;-77
2021/03/01 00:29:51;;;;;;;51.10;25.05;;;4.20;99.90;;;;;;4179798;28;20041;-77
2021/03/01 00:31:54;;;;;;;50.15;25.95;;;4.20;99.90;;;;;;4180102;28;20124;-76
2021/03/01 00:33:55;;;;;;;54.35;25.33;;;4.20;99.90;;;;;;4163797;28;20101;-76
2021/03/01 00:35:55;;;;;;;48.83;22.65;;;4.20;99.90;;;;;;4180065;28;20467;-77
2021/03/01 00:37:56;;;;;;;46.97;23.48;;;4.20;99.90;;;;;;4164029;28;20041;-76
2021/03/01 00:39:57;;;;;;;52.97;25.95;;;4.20;99.90;;;;;;4173511;28;20565;-78
2021/03/01 00:41:58;;;;;;;49.33;25.50;;;4.20;99.90;;;;;;4173035;28;20532;-77
2021/03/01 00:44:00;;;;;;;52.17;24.30;;;4.20;99.90;;;;;;4170590;28;20069;-77
2021/03/01 00:46:01;;;;;;;50.35;25.13;;;4.20;99.90;;;;;;4171163;28;20485;-77
2021/03/01 00:48:02;;;;;;;44.05;24.42;;;4.10;99.90;;;;;;4170825;28;20087;-76
2021/03/01 00:50:05;;;;;;;43.50;23.02;;;4.20;99.90;;;;;;4172956;28;20033;-76
2021/03/01 00:52:07;;;;;;;50.90;26.88;;;4.20;99.90;;;;;;4179843;28;20111;-77
2021/03/01 00:54:07;;;;;;;43.30;23.40;;;4.20;99.90;;;;;;4180007;28;20429;-78
2021/03/01 00:56:08;;;;;;;50.00;24.58;;;4.20;99.90;;;;;;4172003;28;20083;-77
2021/03/01 00:58:09;;;;;;;49.58;25.48;;;4.20;99.90;;;;;;4172082;28;20049;-77
2021/03/01 01:00:15;;;;;;;46.40;24.13;;;4.10;99.90;;;;;;4172959;28;20107;-78
2021/03/01 01:02:17;;;;;;;42.70;24.02;;;4.10;99.90;;;;;;4156697;28;20141;-78
2021/03/01 01:04:18;;;;;;;45.08;26.27;;;4.20;99.90;;;;;;4171049;28;20463;-77
2021/03/01 01:06:18;;;;;;;41.67;24.80;;;4.10;99.90;;;;;;4177338;28;20033;-78
2021/03/01 01:08:19;;;;;;;48.17;23.77;;;4.20;99.90;;;;;;4164070;28;20042;-77
2021/03/01 01:10:20;;;;;;;48.65;25.85;;;4.20;99.90;;;;;;4169138;28;20116;-77
2021/03/01 01:12:21;;;;;;;47.35;26.75;;;4.20;99.90;;;;;;4172668;28;20069;-77
2021/03/01 01:14:22;;;;;;;53.28;26.85;;;4.20;99.90;;;;;;4174565;28;20029;-77
2021/03/01 01:16:23;;;;;;;51.67;26.58;;;4.20;99.90;;;;;;4165991;28;20033;-78
2021/03/01 01:18:25;;;;;;;48.42;24.80;;;4.20;99.90;;;;;;4179467;28;20039;-77
2021/03/01 01:20:26;;;;;;;49.88;26.75;;;4.20;99.90;;;;;;4162879;28;20074;-76
2021/03/01 01:22:26;;;;;;;46.65;27.15;;;4.20;99.90;;;;;;4171026;28;20033;-77
2021/03/01 01:24:27;;;;;;;47.83;24.38;;;4.20;99.90;;;;;;4170963;28;20648;-77
2021/03/01 01:26:28;;;;;;;52.47;26.35;;;4.20;99.90;;;;;;4175886;28;20116;-77
2021/03/01 01:28:28;;;;;;;50.30;25.67;;;4.20;99.90;;;;;;4179468;28;20512;-77
2021/03/01 01:30:30;;;;;;;50.03;26.60;;;4.20;99.90;;;;;;4179431;28;20036;-76
2021/03/01 01:32:31;;;;;;;51.03;25.83;;;4.20;99.90;;;;;;4179820;28;20477;-77
2021/03/01 01:34:31;;;;;;;56.63;27.95;;;4.20;99.90;;;;;;4170281;28;20062;-76
2021/03/01 01:36:32;;;;;;;47.30;26.10;;;4.20;99.90;;;;;;4157279;28;20036;-76
2021/03/01 01:38:33;;;;;;;54.63;26.92;;;4.20;99.90;;;;;;4198348;28;20079;-76
2021/03/01 01:40:34;;;;;;;56.45;28.95;;;4.20;99.90;;;;;;4179740;28;20044;-76
2021/03/01 01:42:35;;;;;;;53.03;28.50;;;4.20;99.90;;;;;;4157608;28;20038;-77
2021/03/01 01:44:36;;;;;;;55.50;29.48;;;4.20;99.90;;;;;;4162670;28;20033;-76
2021/03/01 01:46:36;;;;;;;57.65;29.08;;;4.20;99.90;;;;;;4173365;28;20036;-76
2021/03/01 01:48:37;;;;;;;54.45;29.40;;;4.20;99.90;;;;;;4167571;28;20394;-77
2021/03/01 01:50:39;;;;;;;61.90;30.05;;;4.20;99.90;;;;;;4161580;28;20049;-78
2021/03/01 01:52:40;;;;;;;56.85;27.88;;;4.20;99.90;;;;;;4179232;28;20068;-76
2021/03/01 01:54:42;;;;;;;58.95;29.63;;;4.30;99.90;;;;;;4179222;28;20045;-78
2021/03/01 01:56:43;;;;;;;53.83;28.88;;;4.20;99.90;;;;;;4170787;28;20094;-76
2021/03/01 01:58:44;;;;;;;57.05;31.50;;;4.20;99.90;;;;;;4174693;28;20091;-77
2021/03/01 02:00:47;;;;;;;64.40;32.10;;;4.30;99.90;;;;;;4180378;28;20120;-78
2021/03/01 02:02:59;;;;;;;59.43;29.57;;;4.30;99.90;;;;;;4178949;28;20400;-78
2021/03/01 02:05:05;;;;;;;64.78;29.88;;;4.30;99.90;;;;;;4179228;28;20029;-77
2021/03/01 02:07:30;;;;;;;63.60;30.70;;;4.30;99.90;;;;;;4169176;28;20037;-77
2021/03/01 02:10:00;;;;;;;60.75;31.55;;;4.30;99.90;;;;;;4194172;28;20472;-77
2021/03/01 02:12:40;;;;;;;65.97;32.80;;;4.30;99.90;;;;;;4161297;28;20040;-77
2021/03/01 02:15:06;;;;;;;60.10;28.15;;;4.30;99.90;;;;;;4176437;28;20090;-77
2021/03/01 02:17:06;;;;;;;57.92;30.05;;;4.30;99.90;;;;;;4161915;28;20543;-77
2021/03/01 02:19:08;;;;;;;57.92;30.40;;;4.30;99.90;;;;;;4170140;28;20037;-77
2021/03/01 02:21:11;;;;;;;58.45;31.65;;;4.30;99.90;;;;;;4162143;28;20489;-77
2021/03/01 02:23:13;;;;;;;59.03;31.63;;;4.30;99.90;;;;;;4176820;28;20033;-77
2021/03/01 02:25:23;;;;;;;54.42;29.30;;;4.30;99.90;;;;;;4178726;28;20521;-77
2021/03/01 02:27:34;;;;;;;62.95;29.90;;;4.30;99.90;;;;;;4162216;28;20032;-77
2021/03/01 02:29:38;;;;;;;53.15;27.80;;;4.30;99.90;;;;;;4168505;28;20037;-77
2021/03/01 02:31:44;;;;;;;55.47;29.60;;;4.30;99.90;;;;;;4177967;28;20041;-77
2021/03/01 02:33:50;;;;;;;58.55;29.50;;;4.30;99.90;;;;;;4178477;28;20151;-77
2021/03/01 02:36:10;;;;;;;59.58;30.40;;;4.40;99.90;;;;;;4162368;28;20037;-77
2021/03/01 02:38:11;;;;;;;57.17;30.00;;;4.40;99.90;;;;;;4160440;28;20124;-77
2021/03/01 02:40:13;;;;;;;57.35;28.80;;;4.40;99.90;;;;;;4175337;28;20039;-77
2021/03/01 02:42:21;;;;;;;68.65;32.17;;;4.40;99.90;;;;;;4161072;28;20040;-77
2021/03/01 02:44:22;;;;;;;64.95;30.50;;;4.40;99.90;;;;;;4177888;28;20036;-77
2021/03/01 02:46:23;;;;;;;62.05;30.05;;;4.40;99.90;;;;;;4178352;28;20048;-77
2021/03/01 02:48:26;;;;;;;59.90;31.40;;;4.40;99.90;;;;;;4176365;28;20637;-77
2021/03/01 02:50:27;;;;;;;64.15;31.05;;;4.40;99.90;;;;;;4178264;28;20025;-77
2021/03/01 02:52:29;;;;;;;59.60;30.75;;;4.40;99.90;;;;;;4177334;28;20559;-78
2021/03/01 02:54:31;;;;;;;65.00;31.65;;;4.40;99.90;;;;;;4178143;28;20028;-77
2021/03/01 02:56:33;;;;;;;59.72;32.38;;;4.40;99.90;;;;;;4178080;28;20122;-78
2021/03/01 02:58:39;;;;;;;60.92;30.83;;;4.40;99.90;;;;;;4160804;28;20029;-77
2021/03/01 03:00:41;;;;;;;61.78;32.08;;;4.40;99.90;;;;;;4175646;28;20408;-78
2021/03/01 03:02:43;;;;;;;58.70;31.27;;;4.40;99.90;;;;;;4176701;28;20082;-77
2021/03/01 03:04:46;;;;;;;61.22;29.20;;;4.40;99.90;;;;;;4161818;28;20327;-78
2021/03/01 03:06:48;;;;;;;63.30;29.40;;;4.40;99.90;;;;;;4161393;28;20112;-78
2021/03/01 03:08:52;;;;;;;61.25;32.15;;;4.40;99.90;;;;;;4178298;28;20123;-77
2021/03/01 03:10:53;;;;;;;58.53;31.27;;;4.30;99.90;;;;;;4177948;28;20033;-78
2021/03/01 03:12:55;;;;;;;56.67;31.65;;;4.30;99.90;;;;;;4161874;28;20132;-77
2021/03/01 03:14:58;;;;;;;60.15;30.98;;;4.40;99.90;;;;;;4161586;28;20037;-77
2021/03/01 03:17:00;;;;;;;68.38;31.95;;;4.40;99.90;;;;;;4178101;28;20188;-78
2021/03/01 03:19:05;;;;;;;64.20;31.33;;;4.40;99.90;;;;;;4177758;28;20036;-78
2021/03/01 03:21:06;;;;;;;64.88;33.72;;;4.40;99.90;;;;;;4177808;28;20021;-77
2021/03/01 03:23:08;;;;;;;64.95;32.80;;;4.40;99.90;;;;;;4177224;28;20083;-76
2021/03/01 03:25:10;;;;;;;60.05;30.20;;;4.40;99.90;;;;;;4178078;28;20491;-76
2021/03/01 03:27:11;;;;;;;57.38;29.20;;;4.40;99.90;;;;;;4161435;28;20608;-76
2021/03/01 03:29:12;;;;;;;63.60;32.45;;;4.40;99.90;;;;;;4164311;28;20069;-77
2021/03/01 03:31:14;;;;;;;64.07;34.35;;;4.40;99.90;;;;;;4167743;28;20033;-77
2021/03/01 03:33:16;;;;;;;55.97;31.95;;;4.30;99.90;;;;;;4177455;28;20109;-77
2021/03/01 03:35:17;;;;;;;59.58;31.95;;;4.30;99.90;;;;;;4172746;28;20017;-78
2021/03/01 03:37:28;;;;;;;63.72;33.28;;;4.30;99.90;;;;;;4181067;28;20116;-77
2021/03/01 03:39:35;;;;;;;53.45;31.23;;;4.30;99.90;;;;;;4180837;28;20071;-76
2021/03/01 03:41:37;;;;;;;56.13;29.83;;;4.30;99.90;;;;;;4164588;28;20029;-76
2021/03/01 03:43:42;;;;;;;63.38;31.27;;;4.30;99.90;;;;;;4180917;28;20072;-77
2021/03/01 03:45:43;;;;;;;56.38;31.23;;;4.30;99.90;;;;;;4197499;28;20035;-77
2021/03/01 03:47:48;;;;;;;55.55;28.48;;;4.30;99.90;;;;;;4170523;28;20116;-78
2021/03/01 03:49:54;;;;;;;52.00;30.00;;;4.30;99.90;;;;;;4162952;28;20029;-77
2021/03/01 03:51:58;;;;;;;63.30;30.67;;;4.20;99.90;;;;;;4197869;28;20048;-77
2021/03/01 03:54:15;;;;;;;68.97;32.42;;;4.20;99.90;;;;;;4188638;28;20063;-77
2021/03/01 03:56:22;;;;;;;58.70;33.25;;;4.20;99.90;;;;;;4180705;28;20755;-78
2021/03/01 03:58:30;;;;;;;58.45;30.25;;;4.20;99.90;;;;;;4164200;28;20034;-77
2021/03/01 04:00:34;;;;;;;61.90;30.25;;;4.20;99.90;;;;;;4176051;28;20068;-79
2021/03/01 04:02:36;;;;;;;55.97;31.17;;;4.20;99.90;;;;;;4172815;28;20095;-78
2021/03/01 04:04:38;;;;;;;49.88;29.13;;;4.20;99.90;;;;;;4170194;28;20515;-78
2021/03/01 04:06:43;;;;;;;56.38;30.42;;;4.20;99.90;;;;;;4161636;28;20044;-78
2021/03/01 04:08:50;;;;;;;62.40;31.48;;;4.20;99.90;;;;;;4190142;28;20048;-77
2021/03/01 04:10:53;;;;;;;58.97;31.25;;;4.20;99.90;;;;;;4178961;28;20127;-78
2021/03/01 04:12:54;;;;;;;61.47;30.90;;;4.20;99.90;;;;;;4197600;28;20085;-78
2021/03/01 04:14:57;;;;;;;57.00;31.98;;;4.20;99.90;;;;;;4164461;28;20125;-78
2021/03/01 04:17:03;;;;;;;56.15;30.77;;;4.20;99.90;;;;;;4180858;28;20060;-78
2021/03/01 04:19:07;;;;;;;55.10;31.05;;;4.20;99.90;;;;;;4180418;28;20083;-78
2021/03/01 04:21:10;;;;;;;61.28;32.10;;;4.10;99.90;;;;;;4197520;28;20491;-77
2021/03/01 04:23:13;;;;;;;56.65;30.25;;;4.10;99.90;;;;;;4172051;28;20033;-76
2021/03/01 04:25:15;;;;;;;53.85;29.58;;;4.10;99.90;;;;;;4175812;28;20136;-77
2021/03/01 04:27:17;;;;;;;58.22;30.77;;;4.10;99.90;;;;;;4164207;28;20088;-77
2021/03/01 04:29:21;;;;;;;57.30;30.67;;;4.10;99.90;;;;;;4180961;28;20035;-78
2021/03/01 04:31:22;;;;;;;58.17;32.67;;;4.10;99.90;;;;;;4180315;28;20446;-79
2021/03/01 04:33:23;;;;;;;56.78;29.50;;;4.10;99.90;;;;;;4172907;28;20094;-77
2021/03/01 04:35:25;;;;;;;59.88;31.00;;;4.10;99.90;;;;;;4164018;28;20061;-76
2021/03/01 04:37:26;;;;;;;56.92;32.05;;;4.10;99.90;;;;;;4166201;28;20033;-76
2021/03/01 04:39:27;;;;;;;57.70;30.70;;;4.10;99.90;;;;;;4180514;28;20047;-76
2021/03/01 04:41:28;;;;;;;57.92;31.20;;;4.10;99.90;;;;;;4164393;28;20033;-77
2021/03/01 04:43:33;;;;;;;59.53;31.75;;;4.10;99.90;;;;;;4170526;28;20032;-76
2021/03/01 04:45:34;;;;;;;61.63;31.98;;;4.10;99.90;;;;;;4170606;28;20033;-77
2021/03/01 04:47:35;;;;;;;68.57;32.65;;;4.10;99.90;;;;;;4165284;28;20034;-78
2021/03/01 04:49:38;;;;;;;63.30;33.83;;;4.10;99.90;;;;;;4180010;28;20457;-77
2021/03/01 04:51:41;;;;;;;59.92;31.45;;;4.10;99.90;;;;;;4180386;28;20039;-77
2021/03/01 04:53:42;;;;;;;59.08;31.83;;;4.10;99.90;;;;;;4180347;28;20036;-77
2021/03/01 04:55:45;;;;;;;54.13;29.15;;;4.10;99.90;;;;;;4180444;28;20048;-77
2021/03/01 04:57:45;;;;;;;54.45;28.13;;;4.10;99.90;;;;;;4193741;28;20047;-77
2021/03/01 04:59:48;;;;;;;55.78;30.30;;;4.00;99.90;;;;;;4176324;28;20431;-77
2021/03/01 05:01:51;;;;;;;56.95;29.63;;;4.00;99.90;;;;;;4177984;28;20389;-76
2021/03/01 05:03:52;;;;;;;60.45;30.60;;;4.00;99.90;;;;;;4165947;28;20412;-77
2021/03/01 05:05:53;;;;;;;59.45;33.05;;;3.90;99.90;;;;;;4167912;28;20036;-76
2021/03/01 05:08:11;;;;;;;52.72;29.73;;;3.90;99.90;;;;;;4179527;28;20048;-77
2021/03/01 05:10:12;;;;;;;56.30;28.55;;;3.90;99.90;;;;;;4162871;28;20033;-76
2021/03/01 05:12:13;;;;;;;56.63;30.83;;;3.90;99.90;;;;;;4177367;28;20041;-79
2021/03/01 05:14:14;;;;;;;56.53;31.02;;;3.90;99.90;;;;;;4177775;28;20480;-77
2021/03/01 05:16:15;;;;;;;53.70;28.17;;;3.90;99.90;;;;;;4161187;28;20033;-77
2021/03/01 05:18:16;;;;;;;55.55;29.90;;;3.90;99.90;;;;;;4178608;28;20064;-77
2021/03/01 05:20:17;;;;;;;51.67;28.67;;;3.80;99.90;;;;;;4162843;28;20037;-77
2021/03/01 05:22:17;;;;;;;58.70;31.00;;;3.80;99.90;;;;;;4178553;28;20029;-77
2021/03/01 05:24:18;;;;;;;56.28;30.02;;;3.80;99.90;;;;;;4146423;28;20413;-77
2021/03/01 05:26:20;;;;;;;53.97;28.98;;;3.80;99.90;;;;;;4195363;28;20587;-77
2021/03/01 05:28:20;;;;;;;61.30;30.00;;;3.80;99.90;;;;;;4179032;28;20423;-76
2021/03/01 05:30:22;;;;;;;56.63;29.60;;;3.80;99.90;;;;;;4174478;28;20068;-77
2021/03/01 05:32:23;;;;;;;51.97;27.05;;;3.80;99.90;;;;;;4176456;28;20049;-77
2021/03/01 05:34:24;;;;;;;46.95;28.45;;;3.80;99.90;;;;;;4162932;28;20061;-77
2021/03/01 05:36:24;;;;;;;52.00;27.73;;;3.80;99.90;;;;;;4162039;28;20033;-77
2021/03/01 05:38:25;;;;;;;54.15;29.27;;;3.80;99.90;;;;;;4162478;28;20056;-77
2021/03/01 05:40:26;;;;;;;53.00;28.33;;;3.80;99.90;;;;;;4178614;28;20045;-76
2021/03/01 05:42:27;;;;;;;54.50;29.88;;;3.70;99.90;;;;;;4162340;28;20038;-77
2021/03/01 05:44:29;;;;;;;53.35;28.92;;;3.80;99.90;;;;;;4176828;28;20037;-77
2021/03/01 05:46:34;;;;;;;52.40;29.73;;;3.80;99.90;;;;;;4178953;28;20388;-78
2021/03/01 05:48:35;;;;;;;51.67;27.15;;;3.80;99.90;;;;;;4177858;28;20036;-78
2021/03/01 05:50:39;;;;;;;55.13;30.73;;;3.80;99.90;;;;;;4159574;28;20042;-77
2021/03/01 05:52:45;;;;;;;60.08;29.45;;;3.80;99.90;;;;;;4177867;28;20116;-76
2021/03/01 05:54:46;;;;;;;55.72;29.65;;;3.80;99.90;;;;;;4170364;28;21354;-77
2021/03/01 05:56:48;;;;;;;54.45;29.63;;;3.80;99.90;;;;;;4165011;28;20041;-77
2021/03/01 05:58:51;;;;;;;53.58;28.33;;;3.80;99.90;;;;;;4152355;28;20048;-76
2021/03/01 06:00:54;;;;;;;56.78;30.33;;;3.80;99.90;;;;;;4178699;28;20037;-77
2021/03/01 06:02:58;;;;;;;51.25;28.00;;;3.70;99.90;;;;;;4162006;28;20037;-76
2021/03/01 06:05:02;;;;;;;49.92;29.75;;;3.70;99.90;;;;;;4177667;28;20116;-77
2021/03/01 06:07:03;;;;;;;47.10;27.98;;;3.70;99.90;;;;;;4190496;28;20044;-77
2021/03/01 06:09:05;;;;;;;55.22;28.33;;;3.70;99.90;;;;;;4186564;28;20040;-77
2021/03/01 06:11:08;;;;;;;49.05;27.65;;;3.70;99.90;;;;;;4173034;28;20041;-77
2021/03/01 06:13:09;;;;;;;52.90;28.90;;;3.70;99.90;;;;;;4171342;28;20029;-77
2021/03/01 06:15:10;;;;;;;50.30;28.58;;;3.70;99.90;;;;;;4166782;28;20192;-77
2021/03/01 06:17:16;;;;;;;57.47;32.13;;;3.60;99.90;;;;;;4177721;28;20120;-77
2021/03/01 06:19:54;;;;;;;58.33;32.00;;;3.70;99.90;;;;;;4173674;28;20026;-77
2021/03/01 06:21:54;;;;;;;50.63;28.67;;;3.60;99.90;;;;;;4173361;28;20039;-77
2021/03/01 06:23:56;;;;;;;57.75;31.25;;;3.60;99.90;;;;;;4177211;28;20531;-77
2021/03/01 06:26:33;;;;;;;54.72;30.65;;;3.60;99.90;;;;;;4176876;28;20564;-77
2021/03/01 06:28:34;;;;;;;57.20;30.65;;;3.60;99.90;;;;;;4172198;28;20468;-77
2021/03/01 06:30:40;;;;;;;59.72;32.13;;;3.60;99.90;;;;;;4166749;28;20112;-77
2021/03/01 06:32:41;;;;;;;57.85;29.20;;;3.60;99.90;;;;;;4190211;28;20056;-77
2021/03/01 06:34:42;;;;;;;57.55;28.95;;;3.60;99.90;;;;;;4161927;28;20041;-77
2021/03/01 06:37:10;;;;;;;54.72;30.67;;;3.60;99.90;;;;;;4178213;28;20032;-77
2021/03/01 06:39:43;;;;;;;56.92;30.15;;;3.60;99.90;;;;;;4161764;28;20497;-76
2021/03/01 06:41:44;;;;;;;56.50;29.60;;;3.60;99.90;;;;;;4160095;28;20064;-76
2021/03/01 06:43:59;;;;;;;57.97;30.63;;;3.50;99.90;;;;;;4172802;28;20049;-77
2021/03/01 06:46:13;;;;;;;52.45;28.48;;;3.50;99.90;;;;;;4160803;28;20034;-77
2021/03/01 06:48:14;;;;;;;50.88;27.30;;;3.40;99.90;;;;;;4178161;28;20029;-77
2021/03/01 06:50:44;;;;;;;57.50;31.77;;;3.30;99.90;;;;;;4161856;28;20029;-77
2021/03/01 06:52:45;;;;;;;57.88;29.63;;;3.30;99.90;;;;;;4175793;28;20566;-77
2021/03/01 06:54:45;;;;;;;50.65;26.75;;;3.20;99.90;;;;;;4171613;28;20124;-77
2021/03/01 06:56:46;;;;;;;50.13;28.42;;;3.20;99.90;;;;;;4174375;28;20033;-77
2021/03/01 06:58:47;;;;;;;55.42;30.13;;;3.10;99.90;;;;;;4159682;28;20049;-78
2021/03/01 07:01:00;;;;;;;57.33;28.55;;;3.10;99.90;;;;;;4168748;28;20083;-77
2021/03/01 07:03:01;;;;;;;49.40;25.48;;;3.00;99.90;;;;;;4176692;28;20036;-77
2021/03/01 07:05:01;;;;;;;49.00;25.30;;;2.90;99.90;;;;;;4160311;28;20539;-77
2021/03/01 07:07:03;;;;;;;53.60;28.85;;;2.90;99.90;;;;;;4174855;28;20033;-77
2021/03/01 07:09:14;;;;;;;46.88;26.30;;;2.80;99.90;;;;;;4176498;28;20106;-77
2021/03/01 07:11:33;;;;;;;52.75;26.83;;;2.70;99.90;;;;;;4157378;28;20067;-77
2021/03/01 07:13:34;;;;;;;51.35;26.35;;;2.70;99.90;;;;;;4160038;28;20034;-77
2021/03/01 07:15:35;;;;;;;47.22;25.50;;;2.60;99.90;;;;;;4177532;28;20132;-76
2021/03/01 07:17:39;;;;;;;52.95;25.10;;;2.60;99.90;;;;;;4191034;28;20070;-76
2021/03/01 07:19:41;;;;;;;52.75;26.50;;;2.60;99.90;;;;;;4175690;28;20159;-77
2021/03/01 07:21:45;;;;;;;62.72;27.42;;;2.50;99.90;;;;;;4178335;28;20437;-76
2021/03/01 07:23:48;;;;;;;54.88;25.70;;;2.50;99.90;;;;;;4154287;28;20033;-76
2021/03/01 07:25:49;;;;;;;53.97;26.85;;;2.40;99.90;;;;;;4176660;28;20032;-76
2021/03/01 07:27:52;;;;;;;57.33;29.85;;;2.50;99.90;;;;;;4176367;28;20164;-76
2021/03/01 07:29:57;;;;;;;52.22;25.90;;;2.50;99.90;;;;;;4168610;28;20033;-76
2021/03/01 07:32:09;;;;;;;55.03;26.42;;;2.60;99.90;;;;;;4171513;28;20040;-76
2021/03/01 07:34:11;;;;;;;57.00;27.80;;;2.60;99.90;;;;;;4174528;28;20410;-76
2021/03/01 07:36:13;;;;;;;52.30;26.38;;;2.70;99.90;;;;;;4177521;28;20466;-76
2021/03/01 07:38:14;;;;;;;55.15;29.42;;;2.70;99.90;;;;;;4160752;28;20038;-76
2021/03/01 07:40:17;;;;;;;49.85;26.60;;;2.80;99.90;;;;;;4163127;28;20368;-76
2021/03/01 07:42:18;;;;;;;49.72;25.17;;;2.80;99.90;;;;;;4164008;28;20033;-76
2021/03/01 07:44:38;;;;;;;50.53;26.67;;;2.80;99.90;;;;;;4179051;28;20523;-76
2021/03/01 07:46:47;;;;;;;50.90;26.50;;;2.80;99.90;;;;;;4167113;28;20041;-75
2021/03/01 07:48:48;;;;;;;50.60;25.35;;;2.80;99.90;;;;;;4169285;28;20754;-76
2021/03/01 07:50:49;;;;;;;52.17;27.27;;;2.80;99.90;;;;;;4154273;28;20038;-76
2021/03/01 07:52:49;;;;;;;58.63;27.58;;;2.80;99.90;;;;;;4173112;28;20590;-76
2021/03/01 07:55:06;;;;;;;56.72;29.60;;;2.90;99.90;;;;;;4174000;28;20035;-75
2021/03/01 07:57:08;;;;;;;50.22;27.85;;;2.90;99.90;;;;;;4176284;28;20037;-75
2021/03/01 07:59:11;;;;;;;52.42;28.02;;;3.00;99.90;;;;;;4175522;28;20041;-75
2021/03/01 08:01:14;;;;;;;54.20;28.73;;;3.00;99.90;;;;;;4175765;28;20036;-76
2021/03/01 08:03:36;;;;;;;;;;;3.00;99.90;;;;;;4158327;28;20041;-76
2021/03/01 08:05:37;;;;;;;43.40;24.15;;;3.00;99.90;;;;;;4176969;28;19963;-76
2021/03/01 08:07:43;;;;;;;50.25;25.17;;;3.00;99.90;;;;;;4175817;28;20048;-76
2021/03/01 08:09:54;;;;;;;51.10;26.38;;;3.10;99.90;;;;;;4176201;28;20036;-77
2021/03/01 08:11:55;;;;;;;52.17;25.98;;;3.10;99.90;;;;;;4162340;28;20163;-76
2021/03/01 08:13:56;;;;;;;48.95;25.40;;;3.10;99.90;;;;;;4161589;28;20044;-77
2021/03/01 08:16:20;;;;;;;46.05;24.65;;;3.10;99.90;;;;;;4158294;28;20041;-77
2021/03/01 08:18:51;;;;;;;45.90;25.95;;;3.10;99.90;;;;;;4174846;28;20041;-77
2021/03/01 08:20:56;;;;;;;44.97;23.35;;;3.10;99.90;;;;;;4166527;28;20381;-77
2021/03/01 08:23:03;;;;;;;45.55;25.77;;;3.10;99.90;;;;;;4174340;28;20037;-77
2021/03/01 08:25:05;;;;;;;50.58;24.42;;;3.10;99.90;;;;;;4170318;28;20033;-77
2021/03/01 08:27:41;;;;;;;50.30;26.02;;;3.10;99.90;;;;;;4178098;28;20524;-78
2021/03/01 08:29:42;;;;;;;45.92;24.05;;;3.10;99.90;;;;;;4127967;28;20038;-77
2021/03/01 08:31:43;;;;;;;48.40;27.35;;;3.20;99.90;;;;;;4130080;28;20104;-77
2021/03/01 08:33:45;;;;;;;48.15;27.23;;;3.20;99.90;;;;;;4173072;28;20033;-77
2021/03/01 08:35:49;;;;;;;47.92;27.00;;;3.30;99.90;;;;;;4173599;28;20493;-77
2021/03/01 08:37:50;;;;;;;48.22;23.88;;;3.30;99.90;;;;;;4162335;28;20026;-77
2021/03/01 08:39:59;;;;;;;44.47;25.88;;;3.30;99.90;;;;;;4169707;28;20033;-77
2021/03/01 08:42:00;;;;;;;41.38;23.23;;;3.30;99.90;;;;;;4168904;28;20036;-77
2021/03/01 08:44:03;;;;;;;40.78;21.50;;;3.20;99.90;;;;;;4182412;28;20520;-77
2021/03/01 08:46:06;;;;;;;43.35;24.77;;;3.30;99.90;;;;;;4193105;28;20039;-77
2021/03/01 08:48:19;;;;;;;;;;;3.40;99.90;;;;;;4163153;28;20025;-77
2021/03/01 08:50:35;;;;;;;37.92;22.15;;;3.40;99.90;;;;;;4152816;28;20391;-77
2021/03/01 08:52:35;;;;;;;37.03;22.48;;;3.40;99.90;;;;;;4178126;28;20484;-76
2021/03/01 08:54:36;;;;;;;37.60;22.00;;;3.40;99.90;;;;;;4159977;28;20129;-76
2021/03/01 08:56:37;;;;;;;35.03;21.58;;;3.50;99.90;;;;;;4180058;28;20067;-77
2021/03/01 08:58:42;;;;;;;36.85;20.50;;;3.50;99.90;;;;;;4178851;28;20057;-76
2021/03/01 09:01:03;;;;;;;41.58;23.02;;;3.60;99.90;;;;;;4195793;28;20040;-77
2021/03/01 09:03:21;;;;;;;36.63;20.00;;;3.70;99.90;;;;;;4178144;28;20500;-77
2021/03/01 09:05:22;;;;;;;36.75;19.77;;;3.70;99.90;;;;;;4171186;28;20123;-76
2021/03/01 09:07:22;;;;;;;36.92;22.23;;;3.80;99.90;;;;;;4179114;28;20059;-77
2021/03/01 09:09:23;;;;;;;43.97;23.80;;;3.80;99.90;;;;;;4152351;28;20657;-77
2021/03/01 09:11:29;;;;;;;44.22;23.38;;;3.90;99.90;;;;;;4179069;28;20043;-77
2021/03/01 09:13:34;;;;;;;35.90;22.77;;;3.90;99.90;;;;;;4150095;28;20485;-76
2021/03/01 09:15:36;;;;;;;39.35;22.27;;;3.80;99.90;;;;;;4177160;28;20601;-78
2021/03/01 09:17:37;;;;;;;36.85;20.65;;;3.80;99.90;;;;;;4162001;28;20040;-76
2021/03/01 09:19:37;;;;;;;39.33;22.90;;;3.70;99.90;;;;;;4194337;28;20052;-75
2021/03/01 09:21:41;;;;;;;37.90;22.15;;;3.70;99.90;;;;;;4160846;28;20670;-76
2021/03/01 09:23:56;;;;;;;35.75;21.42;;;3.70;99.90;;;;;;4163002;28;20696;-76
2021/03/01 09:25:57;;;;;;;35.30;20.23;;;3.80;99.90;;;;;;4178890;28;20512;-76
2021/03/01 09:27:58;;;;;;;36.28;22.35;;;3.80;99.90;;;;;;4176430;28;20033;-76
2021/03/01 09:30:06;;;;;;;31.98;19.90;;;3.70;99.90;;;;;;4178497;28;20029;-76
2021/03/01 09:32:07;;;;;;;35.58;20.85;;;3.80;99.90;;;;;;4178643;28;20420;-78
2021/03/01 09:34:09;;;;;;;36.50;20.75;;;3.80;99.90;;;;;;4162454;28;20037;-76
2021/03/01 09:36:10;;;;;;;75.80;45.53;;;3.90;99.90;;;;;;4178407;28;20102;-78
2021/03/01 09:38:11;;;;;;;154.82;106.53;;;3.90;99.90;;;;;;4178284;28;20029;-76
2021/03/01 09:40:21;;;;;;;134.13;95.85;;;3.90;99.90;;;;;;4176835;28;20037;-77
2021/03/01 09:42:22;;;;;;;53.45;34.55;;;3.90;99.90;;;;;;4179150;28;20376;-77
2021/03/01 09:44:29;;;;;;;36.28;23.10;;;3.90;99.90;;;;;;4176623;28;20033;-77
2021/03/01 09:46:30;;;;;;;35.40;19.95;;;3.90;99.90;;;;;;4194276;28;20058;-77
2021/03/01 09:48:37;;;;;;;37.75;19.33;;;4.00;99.90;;;;;;4178013;28;20036;-77
2021/03/01 09:50:39;;;;;;;30.52;19.40;;;4.30;99.90;;;;;;4161479;28;20045;-76
2021/03/01 09:52:40;;;;;;;27.73;17.25;;;4.40;99.90;;;;;;4178566;28;20443;-76
2021/03/01 09:54:41;;;;;;;28.92;16.60;;;4.40;99.90;;;;;;4172818;28;20102;-76
2021/03/01 09:56:49;;;;;;;30.63;18.60;;;4.50;99.90;;;;;;4169412;28;20093;-76
2021/03/01 09:58:50;;;;;;;32.42;19.23;;;4.50;99.90;;;;;;4158715;28;20049;-76
2021/03/01 10:00:52;;;;;;;27.73;17.45;;;4.60;99.90;;;;;;4179865;28;20086;-77
2021/03/01 10:03:04;;;;;;;27.73;17.30;;;4.70;99.90;;;;;;4167371;28;20044;-76
2021/03/01 10:05:10;;;;;;;29.92;17.38;;;4.80;99.90;;;;;;4168803;28;20041;-77
2021/03/01 10:07:20;;;;;;;27.90;17.00;;;4.60;99.90;;;;;;4172135;28;20028;-76
2021/03/01 10:09:20;;;;;;;31.75;17.63;;;4.70;99.90;;;;;;4176228;28;20025;-77
2021/03/01 10:11:24;;;;;;;25.88;16.55;;;4.70;99.90;;;;;;4160886;28;20049;-76
2021/03/01 10:13:34;;;;;;;27.85;16.40;;;4.60;99.90;;;;;;4157595;28;20124;-76
2021/03/01 10:15:46;;;;;;;34.40;19.10;;;4.60;99.90;;;;;;4175590;28;20040;-77
2021/03/01 10:18:03;;;;;;;27.50;16.77;;;4.60;99.90;;;;;;4167964;28;20037;-76
2021/03/01 10:20:09;;;;;;;26.90;15.57;;;4.70;99.90;;;;;;4161561;28;20108;-77
2021/03/01 10:22:10;;;;;;;27.17;15.38;;;4.80;99.90;;;;;;4159728;28;20029;-78
2021/03/01 10:24:13;;;;;;;30.77;16.83;;;5.00;99.90;;;;;;4178062;28;20369;-76
2021/03/01 10:26:21;;;;;;;24.95;15.63;;;5.20;99.90;;;;;;4178659;28;20094;-78
2021/03/01 10:28:25;;;;;;;24.42;14.93;;;5.30;99.90;;;;;;4175936;28;20037;-76
2021/03/01 10:30:26;;;;;;;28.30;16.48;;;5.30;99.90;;;;;;4178080;28;20052;-76
2021/03/01 10:32:26;;;;;;;25.42;16.60;;;5.30;99.90;;;;;;4177104;28;20120;-78
2021/03/01 10:34:38;;;;;;;28.67;15.82;;;5.40;99.90;;;;;;4184633;28;20040;-76
2021/03/01 10:36:48;;;;;;;27.25;16.20;;;5.60;99.90;;;;;;4178022;28;20033;-76
2021/03/01 10:39:17;;;;;;;30.92;18.13;;;5.50;99.90;;;;;;4178567;28;20091;-77
2021/03/01 10:41:20;;;;;;;26.63;16.40;;;5.50;99.90;;;;;;4166694;28;20037;-77